createdAt,value
2018-01-08T11:01:32.383Z,7.50
2018-01-08T11:03:59.898Z,7.50
2018-01-08T11:06:27.377Z,7.40
2018-01-08T11:08:55.687Z,7.40
2018-01-08T11:11:23.162Z,7.40
2018-01-08T11:13:51.069Z,7.50
2018-01-08T11:16:19.315Z,7.50
2018-01-08T11:18:46.824Z,7.50
2018-01-08T11:21:14.357Z,7.50
2018-01-08T11:23:42.608Z,7.50
2018-01-08T11:26:10.125Z,7.50
2018-01-08T11:28:37.619Z,7.50
2018-01-08T11:31:05.156Z,7.50
2018-01-08T11:33:32.636Z,7.40
2018-01-08T11:36:00.296Z,7.50
2018-01-08T11:38:27.785Z,7.60
2018-01-08T11:40:56.114Z,7.70
2018-01-08T11:43:23.581Z,7.60
2018-01-08T11:45:51.124Z,7.70
2018-01-08T11:48:18.602Z,7.60
2018-01-08T11:50:46.119Z,7.70
2018-01-08T11:53:13.613Z,7.80
2018-01-08T11:55:41.243Z,7.80
2018-01-08T11:58:08.723Z,7.90
2018-01-08T12:00:36.238Z,7.90
2018-01-08T12:03:04.511Z,8.00
2018-01-08T12:05:33.049Z,8.00
2018-01-08T12:08:00.635Z,8.00
2018-01-08T12:10:28.124Z,8.00
2018-01-08T12:12:55.605Z,8.00
2018-01-08T12:15:23.113Z,8.00
2018-01-08T12:17:50.608Z,8.10
2018-01-08T12:20:18.109Z,8.00
2018-01-08T12:22:45.710Z,8.10
2018-01-08T12:25:13.959Z,8.10
2018-01-08T12:27:41.442Z,8.10
2018-01-08T12:30:09.745Z,8.20
2018-01-08T12:32:37.227Z,8.20
2018-01-08T12:35:04.717Z,8.20
2018-01-08T12:37:32.211Z,8.20
2018-01-08T12:39:59.690Z,8.20
2018-01-08T12:42:27.265Z,8.20
2018-01-08T12:44:54.759Z,8.10
2018-01-08T12:47:23.453Z,8.10
2018-01-08T12:49:51.816Z,8.10
2018-01-08T12:52:19.303Z,8.10
2018-01-08T12:54:46.795Z,8.10
2018-01-08T12:57:14.258Z,8.00
2018-01-08T12:59:41.775Z,8.00
2018-01-08T13:02:09.355Z,8.00
2018-01-08T13:04:36.874Z,8.00
2018-01-08T13:07:04.393Z,8.00
2018-01-08T13:09:31.944Z,8.10
2018-01-08T13:11:59.428Z,8.10
2018-01-08T13:14:26.894Z,8.10
2018-01-08T13:16:54.394Z,8.10
2018-01-08T13:19:21.870Z,8.30
2018-01-08T13:21:49.389Z,8.20
2018-01-08T13:24:17.758Z,8.20
2018-01-08T13:26:46.044Z,8.10
2018-01-08T13:29:15.459Z,8.10
2018-01-08T13:31:42.977Z,8.10
2018-01-08T13:34:10.959Z,8.20
2018-01-08T13:36:38.471Z,8.30
2018-01-08T13:39:05.957Z,9.00
2018-01-08T13:41:33.453Z,8.90
2018-01-08T13:44:00.964Z,8.60
2018-01-08T13:46:28.482Z,8.50
2018-01-08T13:48:55.950Z,8.30
2018-01-08T13:51:23.465Z,8.30
2018-01-08T13:53:50.946Z,8.20
2018-01-08T13:56:18.444Z,8.10
2018-01-08T13:58:45.903Z,7.90
2018-01-08T14:01:13.397Z,7.90
2018-01-08T14:03:40.871Z,8.00
2018-01-08T14:06:09.270Z,7.70
2018-01-08T14:08:36.704Z,7.70
2018-01-08T14:11:04.994Z,7.70
2018-01-08T14:13:32.525Z,7.70
2018-01-08T14:16:00.033Z,7.70
2018-01-08T14:18:27.540Z,7.80
2018-01-08T14:20:55.021Z,7.80
2018-01-08T14:23:22.686Z,7.80
2018-01-08T14:25:50.186Z,7.80
2018-01-08T14:28:17.679Z,7.90
2018-01-08T14:30:45.940Z,7.80
2018-01-08T14:35:01.420Z,7.80
2018-01-08T14:37:28.891Z,7.70
2018-01-08T14:39:56.437Z,7.70
2018-01-08T14:42:23.915Z,7.70
2018-01-08T14:44:51.424Z,7.70
2018-01-08T14:47:18.890Z,7.70
2018-01-08T14:49:46.408Z,7.70
2018-01-08T14:52:14.991Z,7.70
2018-01-08T14:54:43.635Z,7.80
2018-01-08T14:57:11.133Z,7.80
2018-01-08T14:59:39.485Z,7.80
2018-01-08T15:02:06.963Z,7.80
2018-01-08T15:04:35.232Z,7.70
2018-01-08T15:07:02.691Z,7.70
2018-01-08T15:09:30.946Z,7.70
2018-01-08T15:11:58.468Z,7.70
2018-01-08T15:14:25.963Z,7.80
2018-01-08T15:16:53.465Z,7.70
2018-01-08T15:19:20.945Z,7.80
2018-01-08T15:21:48.456Z,7.80
2018-01-08T15:24:16.714Z,7.60
2018-01-08T15:26:44.224Z,7.60
2018-01-08T15:29:11.722Z,7.70
2018-01-08T15:31:39.245Z,7.70
2018-01-08T15:34:08.756Z,7.70
2018-01-08T15:36:36.304Z,7.70
2018-01-08T15:39:03.786Z,7.70
2018-01-08T15:41:31.306Z,7.70
2018-01-08T15:43:58.792Z,7.70
2018-01-08T15:46:26.319Z,7.80
2018-01-08T15:48:53.981Z,7.80
2018-01-08T15:51:21.536Z,7.70
2018-01-08T15:53:49.810Z,7.70
2018-01-08T15:56:18.134Z,7.50
2018-01-08T15:58:45.583Z,7.50
2018-01-08T16:01:13.103Z,7.60
2018-01-08T16:03:41.351Z,7.60
2018-01-08T16:06:08.866Z,7.60
2018-01-08T16:08:36.372Z,7.60
2018-01-08T16:11:03.888Z,6.90
2018-01-08T16:13:31.379Z,7.60
2018-01-08T16:15:58.884Z,7.70
2018-01-08T16:18:26.410Z,7.70
2018-01-08T16:20:53.956Z,7.70
2018-01-08T16:23:21.454Z,7.70
2018-01-08T16:25:53.095Z,7.60
2018-01-08T16:28:20.856Z,7.70
2018-01-08T16:30:48.418Z,7.70
2018-01-08T16:33:16.705Z,7.50
2018-01-08T16:35:44.956Z,7.60
2018-01-08T16:38:12.474Z,7.60
2018-01-08T16:40:40.193Z,7.40
2018-01-08T16:43:08.472Z,7.50
2018-01-08T16:45:36.714Z,7.50
2018-01-08T16:48:04.231Z,7.40
2018-01-08T16:50:31.718Z,7.40
2018-01-08T16:52:59.213Z,7.40
2018-01-08T16:55:27.468Z,7.40
2018-01-08T16:57:54.960Z,7.30
2018-01-08T17:00:23.211Z,7.40
2018-01-08T17:02:50.733Z,7.40
2018-01-08T17:05:18.211Z,7.30
2018-01-08T17:07:45.715Z,7.40
2018-01-08T17:10:13.198Z,7.40
2018-01-08T17:12:40.720Z,7.40
2018-01-08T17:15:08.191Z,7.40
2018-01-08T17:17:35.721Z,7.30
2018-01-08T17:20:03.192Z,7.30
2018-01-08T17:22:31.454Z,7.50
2018-01-08T17:24:58.950Z,7.50
2018-01-08T17:27:26.459Z,7.50
2018-01-08T17:29:53.944Z,7.50
2018-01-08T17:32:23.118Z,7.30
2018-01-08T17:34:50.596Z,7.30
2018-01-08T17:37:18.981Z,7.30
2018-01-08T17:39:47.218Z,7.30
2018-01-08T17:42:14.727Z,7.30
2018-01-08T17:44:42.226Z,7.30
2018-01-08T17:47:09.727Z,7.40
2018-01-08T17:49:37.981Z,7.40
2018-01-08T17:52:05.504Z,7.40
2018-01-08T17:54:32.983Z,7.40
2018-01-08T17:57:00.481Z,7.30
2018-01-08T17:59:28.748Z,7.20
2018-01-08T18:01:57.017Z,7.10
2018-01-08T18:04:25.947Z,7.00
2018-01-08T18:06:53.450Z,7.00
2018-01-08T18:09:20.951Z,6.90
2018-01-08T18:11:48.490Z,6.90
2018-01-08T18:14:16.727Z,6.80
2018-01-08T18:16:44.251Z,6.80
2018-01-08T18:19:11.744Z,6.90
2018-01-08T18:21:39.255Z,6.90
2018-01-08T18:24:06.747Z,6.90
2018-01-08T18:26:34.248Z,6.90
2018-01-08T18:29:01.727Z,7.00
2018-01-08T18:31:30.004Z,6.90
2018-01-08T18:33:57.478Z,6.90
2018-01-08T18:36:24.996Z,6.90
2018-01-08T18:38:52.506Z,6.90
2018-01-08T18:41:20.029Z,6.90
2018-01-08T18:43:48.273Z,7.00
2018-01-08T18:46:15.846Z,6.90
2018-01-08T18:48:43.342Z,7.00
2018-01-08T18:51:10.839Z,7.00
2018-01-08T18:53:38.397Z,7.00
2018-01-08T18:56:05.914Z,7.00
2018-01-08T18:58:33.397Z,7.00
2018-01-08T19:01:00.945Z,6.90
2018-01-08T19:03:28.438Z,7.00
2018-01-08T19:05:55.998Z,6.90
2018-01-08T19:08:23.508Z,7.70
2018-01-08T19:10:51.009Z,6.90
2018-01-08T19:13:18.689Z,6.90
2018-01-08T19:15:46.327Z,6.90
2018-01-08T19:18:13.852Z,6.90
2018-01-08T19:20:41.318Z,6.90
2018-01-08T19:23:08.819Z,6.90
2018-01-08T19:25:36.288Z,6.90
2018-01-08T19:28:04.713Z,6.90
2018-01-08T19:30:32.183Z,7.00
2018-01-08T19:32:59.724Z,7.00
2018-01-08T19:35:27.197Z,7.10
2018-01-08T19:37:54.721Z,7.10
2018-01-08T19:40:23.021Z,7.10
2018-01-08T19:42:51.061Z,7.00
2018-01-08T19:45:18.556Z,7.10
2018-01-08T19:47:46.318Z,7.10
2018-01-08T19:50:13.899Z,7.10
2018-01-08T19:52:41.403Z,7.20
2018-01-08T19:55:08.990Z,7.20
2018-01-08T19:57:36.866Z,7.20
2018-01-08T20:00:04.352Z,7.20
2018-01-08T20:02:31.996Z,7.20
2018-01-08T20:04:59.553Z,7.10
2018-01-08T20:07:27.034Z,7.10
2018-01-08T20:09:54.579Z,7.10
2018-01-08T20:12:22.053Z,7.10
2018-01-08T20:14:49.635Z,7.10
2018-01-08T20:17:17.902Z,7.10
2018-01-08T20:19:46.264Z,7.20
2018-01-08T20:22:13.757Z,7.10
2018-01-08T20:24:42.023Z,7.10
2018-01-08T20:27:10.285Z,7.10
2018-01-08T20:29:37.826Z,7.00
2018-01-08T20:32:05.317Z,7.00
2018-01-08T20:34:33.560Z,7.00
2018-01-08T20:37:01.187Z,7.00
2018-01-08T20:39:28.656Z,7.00
2018-01-08T20:41:56.173Z,7.10
2018-01-08T20:44:24.820Z,7.30
2018-01-08T20:46:52.308Z,7.20
2018-01-08T20:49:20.570Z,7.20
2018-01-08T20:51:48.857Z,7.30
2018-01-08T20:54:17.095Z,7.40
2018-01-08T20:56:44.608Z,7.30
2018-01-08T20:59:12.861Z,7.40
2018-01-08T21:01:40.527Z,7.40
2018-01-08T21:04:08.111Z,7.40
2018-01-08T21:06:35.619Z,7.30
2018-01-08T21:09:03.100Z,7.30
2018-01-08T21:11:30.610Z,7.30
2018-01-08T21:13:58.080Z,7.20
2018-01-08T21:16:25.617Z,7.20
2018-01-08T21:18:53.125Z,7.20
2018-01-08T21:21:20.965Z,7.30
2018-01-08T21:23:48.454Z,7.30
2018-01-08T21:26:16.068Z,7.20
2018-01-08T21:28:43.541Z,7.20
2018-01-08T21:31:11.020Z,7.20
2018-01-08T21:33:38.536Z,7.30
2018-01-08T21:36:06.016Z,7.30
2018-01-08T21:38:33.560Z,7.30
2018-01-08T21:41:01.107Z,7.30
2018-01-08T21:43:28.715Z,7.30
2018-01-08T21:45:56.204Z,7.20
2018-01-08T21:48:23.733Z,7.20
2018-01-08T21:50:51.936Z,7.20
2018-01-08T21:53:20.217Z,7.10
2018-01-08T21:55:47.677Z,7.10
2018-01-08T21:58:15.191Z,7.10
2018-01-08T22:00:42.662Z,7.00
2018-01-08T22:03:10.159Z,7.10
2018-01-08T22:05:37.642Z,7.20
2018-01-08T22:08:05.167Z,7.20
2018-01-08T22:10:32.637Z,7.20
2018-01-08T22:13:00.169Z,7.20
2018-01-08T22:15:28.473Z,7.20
2018-01-08T22:17:55.992Z,7.20
2018-01-08T22:20:23.457Z,7.20
2018-01-08T22:22:51.746Z,7.20
2018-01-08T22:25:19.971Z,7.10
2018-01-08T22:27:47.504Z,7.10
2018-01-08T22:30:14.992Z,7.10
2018-01-08T22:32:42.493Z,7.10
2018-01-08T22:35:10.735Z,7.10
2018-01-08T22:37:38.227Z,7.00
2018-01-08T22:40:06.478Z,7.00
2018-01-08T22:42:34.015Z,7.00
2018-01-08T22:45:01.520Z,7.00
2018-01-08T22:47:29.812Z,6.90
2018-01-08T22:49:57.282Z,6.90
2018-01-08T22:52:24.782Z,6.90
2018-01-08T22:54:52.249Z,6.90
2018-01-08T22:57:19.762Z,6.90
2018-01-08T22:59:47.226Z,6.90
2018-01-08T23:02:14.734Z,6.80
2018-01-08T23:04:43.043Z,6.80
2018-01-08T23:07:10.562Z,6.70
2018-01-08T23:09:38.070Z,6.70
2018-01-08T23:12:05.580Z,6.70
2018-01-08T23:14:33.814Z,6.70
2018-01-08T23:17:01.340Z,6.70
2018-01-08T23:19:28.804Z,6.70
2018-01-08T23:21:56.316Z,6.70
2018-01-08T23:24:23.777Z,6.70
2018-01-08T23:26:51.282Z,6.70
2018-01-08T23:29:18.757Z,6.70
2018-01-08T23:31:46.257Z,6.70
2018-01-08T23:34:13.756Z,6.80
2018-01-08T23:36:41.258Z,6.80
2018-01-08T23:39:08.726Z,6.80
2018-01-08T23:41:36.332Z,6.80
2018-01-08T23:44:03.831Z,6.80
2018-01-08T23:46:31.309Z,6.70
2018-01-08T23:48:58.822Z,6.70
2018-01-08T23:51:26.456Z,6.80
2018-01-08T23:53:53.963Z,6.80
2018-01-08T23:56:21.437Z,6.70
2018-01-08T23:58:48.943Z,6.70
